createdAt,value
2023-02-16T00:00:24.107Z,3.68
2023-02-16T00:02:51.766Z,3.65
2023-02-16T00:05:34.851Z,3.54
2023-02-16T00:08:02.534Z,3.71
2023-02-16T00:10:32.270Z,3.55
2023-02-16T00:13:18.153Z,3.54
2023-02-16T00:15:46.304Z,3.53
2023-02-16T00:18:18.746Z,3.60
2023-02-16T00:20:46.555Z,3.54
2023-02-16T00:23:13.983Z,3.48
2023-02-16T00:25:41.415Z,3.45
2023-02-16T00:28:15.728Z,3.45
2023-02-16T00:30:45.621Z,3.47
2023-02-16T00:33:20.240Z,3.32
2023-02-16T00:35:47.998Z,3.42
2023-02-16T00:38:16.562Z,3.52
2023-02-16T00:40:44.150Z,3.43
2023-02-16T00:43:23.561Z,3.37
2023-02-16T00:45:51.692Z,3.46
2023-02-16T00:48:19.174Z,3.34
2023-02-16T00:50:46.581Z,3.17
2023-02-16T00:53:14.446Z,3.27
2023-02-16T00:55:42.878Z,3.24
2023-02-16T00:58:36.689Z,3.28
2023-02-16T01:01:11.129Z,3.34
2023-02-16T01:03:38.727Z,3.37
2023-02-16T01:06:24.914Z,3.02
2023-02-16T01:09:13.061Z,2.96
2023-02-16T01:11:40.721Z,3.11
2023-02-16T01:14:12.119Z,3.14
2023-02-16T01:16:41.637Z,3.11
2023-02-16T01:19:11.630Z,3.10
2023-02-16T01:21:39.697Z,2.99
2023-02-16T01:24:07.343Z,3.05
2023-02-16T01:26:41.012Z,2.99
2023-02-16T01:29:14.732Z,3.01
2023-02-16T01:31:43.143Z,3.14
2023-02-16T01:34:10.915Z,3.15
2023-02-16T01:36:40.387Z,3.02
2023-02-16T01:39:12.775Z,3.05
2023-02-16T01:42:14.300Z,2.97
2023-02-16T01:44:59.747Z,3.07
2023-02-16T01:47:47.605Z,3.02
2023-02-16T01:50:24.582Z,3.01
2023-02-16T01:52:59.116Z,2.85
2023-02-16T01:55:33.004Z,2.80
2023-02-16T01:58:35.789Z,2.85
2023-02-16T02:01:04.998Z,2.75
2023-02-16T02:03:54.609Z,2.71
2023-02-16T02:06:26.662Z,2.88
2023-02-16T02:09:16.638Z,2.92
2023-02-16T02:11:57.530Z,2.86
2023-02-16T02:14:35.784Z,2.96
2023-02-16T02:17:08.241Z,2.96
2023-02-16T02:20:04.840Z,2.87
2023-02-16T02:23:06.362Z,2.93
2023-02-16T02:25:51.726Z,2.97
2023-02-16T02:28:53.247Z,2.89
2023-02-16T02:31:46.275Z,2.68
2023-02-16T02:34:19.400Z,2.71
2023-02-16T02:37:19.244Z,2.65
2023-02-16T02:39:58.793Z,2.56
2023-02-16T02:42:34.056Z,2.58
2023-02-16T02:45:13.831Z,2.69
2023-02-16T02:47:44.265Z,2.67
2023-02-16T02:50:41.455Z,2.60
2023-02-16T02:53:13.502Z,2.78
2023-02-16T02:56:04.075Z,2.73
2023-02-16T02:58:52.600Z,2.70
2023-02-16T03:01:20.751Z,2.76
2023-02-16T03:03:54.774Z,2.73
2023-02-16T03:06:34.446Z,2.58
2023-02-16T03:09:08.892Z,2.58
2023-02-16T03:11:54.741Z,2.53
2023-02-16T03:14:24.879Z,2.65
2023-02-16T03:17:16.213Z,2.51
2023-02-16T03:20:04.694Z,2.56
2023-02-16T03:22:51.164Z,2.63
2023-02-16T03:25:38.727Z,2.60
2023-02-16T03:28:26.714Z,2.56
2023-02-16T03:30:55.289Z,2.53
2023-02-16T03:33:23.640Z,2.67
2023-02-16T03:35:51.691Z,2.51
2023-02-16T03:38:19.849Z,2.56
2023-02-16T03:40:48.274Z,2.53
2023-02-16T03:43:15.637Z,2.33
2023-02-16T03:45:44.827Z,2.29
2023-02-16T03:48:12.480Z,2.40
2023-02-16T03:50:39.986Z,2.53
2023-02-16T03:53:07.914Z,2.57
2023-02-16T03:55:36.974Z,2.59
2023-02-16T03:58:05.276Z,2.56
2023-02-16T04:00:34.176Z,2.54
2023-02-16T04:03:03.133Z,2.64
2023-02-16T04:05:30.801Z,2.58
2023-02-16T04:07:58.188Z,2.58
2023-02-16T04:10:25.825Z,2.49
2023-02-16T04:12:53.448Z,2.43
2023-02-16T04:15:23.207Z,2.56
2023-02-16T04:17:50.954Z,2.66
2023-02-16T04:20:20.311Z,2.68
2023-02-16T04:22:49.906Z,2.68
2023-02-16T04:25:18.874Z,2.70
2023-02-16T04:27:47.245Z,2.53
2023-02-16T04:30:20.313Z,2.53
2023-02-16T04:32:48.443Z,2.68
2023-02-16T04:35:16.285Z,2.63
2023-02-16T04:37:43.981Z,2.57
2023-02-16T04:40:13.822Z,2.62
2023-02-16T04:42:42.269Z,2.45
2023-02-16T04:45:10.576Z,2.43
2023-02-16T04:47:38.287Z,2.52
2023-02-16T04:50:06.371Z,2.61
2023-02-16T04:52:34.352Z,2.58
2023-02-16T04:55:02.299Z,2.53
2023-02-16T04:57:29.800Z,2.51
2023-02-16T04:59:57.186Z,2.56
2023-02-16T05:02:24.836Z,2.46
2023-02-16T05:04:52.217Z,2.49
2023-02-16T05:07:19.690Z,2.43
2023-02-16T05:09:47.539Z,2.60
2023-02-16T05:12:33.257Z,2.50
2023-02-16T05:15:01.001Z,2.34
2023-02-16T05:17:28.561Z,2.40
2023-02-16T05:19:58.217Z,2.42
2023-02-16T05:22:26.396Z,2.27
2023-02-16T05:24:53.768Z,2.27
2023-02-16T05:27:29.031Z,2.28
2023-02-16T05:29:58.087Z,2.36
2023-02-16T05:32:26.005Z,2.31
2023-02-16T05:34:53.626Z,2.41
2023-02-16T05:37:21.367Z,2.32
2023-02-16T05:39:48.779Z,2.29
2023-02-16T05:42:16.199Z,2.36
2023-02-16T05:44:43.905Z,2.34
2023-02-16T05:47:11.357Z,2.38
2023-02-16T05:49:38.747Z,2.20
2023-02-16T05:52:06.382Z,2.27
2023-02-16T05:54:33.778Z,2.12
2023-02-16T05:57:01.459Z,2.24
2023-02-16T05:59:29.142Z,2.15
2023-02-16T06:01:56.610Z,2.28
2023-02-16T06:04:24.574Z,2.22
2023-02-16T06:06:52.052Z,2.12
2023-02-16T06:09:19.509Z,2.16
2023-02-16T06:11:47.152Z,2.24
2023-02-16T06:14:19.668Z,2.12
2023-02-16T06:16:49.220Z,2.28
2023-02-16T06:19:18.120Z,2.30
2023-02-16T06:21:46.110Z,2.33
2023-02-16T06:24:14.877Z,2.38
2023-02-16T06:26:42.512Z,2.38
2023-02-16T06:29:09.920Z,2.41
2023-02-16T06:31:37.737Z,2.51
2023-02-16T06:34:05.462Z,2.55
2023-02-16T06:36:33.289Z,2.50
2023-02-16T06:39:00.929Z,2.66
2023-02-16T06:41:40.859Z,2.62
2023-02-16T06:44:13.498Z,2.79
2023-02-16T06:46:41.991Z,2.79
2023-02-16T06:49:14.474Z,2.91
2023-02-16T06:51:41.943Z,3.00
2023-02-16T06:54:09.703Z,3.10
2023-02-16T06:56:38.023Z,3.21
2023-02-16T06:59:05.958Z,3.32
2023-02-16T07:01:33.754Z,3.52
2023-02-16T07:04:01.165Z,3.96
2023-02-16T07:06:30.812Z,4.18
2023-02-16T07:08:59.159Z,4.37
2023-02-16T07:11:26.603Z,4.44
2023-02-16T07:13:53.968Z,4.28
2023-02-16T07:16:21.758Z,4.32
2023-02-16T07:18:49.176Z,4.50
2023-02-16T07:21:16.651Z,4.50
2023-02-16T07:23:44.367Z,4.38
2023-02-16T07:26:11.816Z,4.51
2023-02-16T07:28:39.377Z,4.63
2023-02-16T07:31:09.503Z,4.73
2023-02-16T07:33:37.429Z,4.92
2023-02-16T07:36:05.643Z,5.06
2023-02-16T07:38:33.464Z,5.21
2023-02-16T07:41:00.903Z,5.21
2023-02-16T07:43:28.303Z,5.31
2023-02-16T07:45:56.707Z,5.51
2023-02-16T07:48:24.240Z,5.60
2023-02-16T07:50:51.699Z,5.80
2023-02-16T07:53:19.418Z,5.89
2023-02-16T07:55:46.914Z,5.77
2023-02-16T07:58:27.510Z,5.95
2023-02-16T08:01:08.289Z,6.10
2023-02-16T08:03:36.154Z,6.00
2023-02-16T08:06:04.356Z,6.11
2023-02-16T08:08:32.167Z,6.40
2023-02-16T08:11:00.377Z,6.55
2023-02-16T08:13:27.803Z,6.49
2023-02-16T08:15:55.190Z,6.71
2023-02-16T08:18:22.818Z,6.77
2023-02-16T08:21:03.360Z,6.88
2023-02-16T08:23:32.191Z,6.96
2023-02-16T08:26:00.079Z,7.10
2023-02-16T08:28:28.738Z,7.11
2023-02-16T08:30:56.992Z,7.37
2023-02-16T08:33:25.037Z,7.56
2023-02-16T08:35:52.442Z,7.71
2023-02-16T08:38:23.255Z,7.75
2023-02-16T08:40:51.343Z,8.02
2023-02-16T08:43:18.874Z,8.22
2023-02-16T08:45:47.699Z,8.10
2023-02-16T08:48:16.890Z,8.23
2023-02-16T08:50:53.792Z,8.48
2023-02-16T08:53:23.220Z,8.51
2023-02-16T08:55:57.954Z,8.65
2023-02-16T08:58:26.821Z,8.72
2023-02-16T09:00:54.350Z,8.72
2023-02-16T09:03:21.869Z,8.72
2023-02-16T09:05:51.206Z,8.84
2023-02-16T09:08:19.553Z,8.87
2023-02-16T09:10:46.953Z,8.94
2023-02-16T09:13:14.957Z,8.89
2023-02-16T09:15:43.389Z,8.98
2023-02-16T09:18:12.706Z,9.22
2023-02-16T09:20:43.813Z,9.29
2023-02-16T09:23:15.043Z,9.43
2023-02-16T09:25:42.725Z,9.76
2023-02-16T09:28:10.879Z,9.95
2023-02-16T09:30:39.379Z,9.89
2023-02-16T09:33:07.802Z,10.06
2023-02-16T09:35:35.370Z,10.12
2023-02-16T09:38:02.747Z,10.16
2023-02-16T09:40:30.403Z,10.27
2023-02-16T09:43:29.530Z,10.43
2023-02-16T09:45:58.864Z,10.51
2023-02-16T09:48:36.626Z,10.29
2023-02-16T09:51:05.548Z,10.44
2023-02-16T09:53:37.226Z,10.62
2023-02-16T09:56:36.566Z,10.68
2023-02-16T09:59:14.812Z,10.79
2023-02-16T10:01:55.095Z,10.83
2023-02-16T10:04:47.684Z,10.87
2023-02-16T10:07:37.366Z,10.88
2023-02-16T10:10:07.550Z,11.04
2023-02-16T10:12:40.688Z,11.15
2023-02-16T10:15:15.043Z,11.04
2023-02-16T10:17:47.461Z,10.93
2023-02-16T10:20:23.864Z,11.01
2023-02-16T10:23:32.220Z,11.25
2023-02-16T10:26:06.628Z,11.33
2023-02-16T10:28:43.094Z,11.17
2023-02-16T10:31:28.682Z,11.42
2023-02-16T10:34:05.376Z,11.26
2023-02-16T10:36:51.895Z,11.18
2023-02-16T10:39:28.733Z,11.28
2023-02-16T10:42:16.466Z,11.57
2023-02-16T10:44:48.710Z,11.44
2023-02-16T10:47:33.511Z,11.27
2023-02-16T10:50:00.950Z,11.29
2023-02-16T10:52:36.048Z,11.30
2023-02-16T10:55:03.956Z,11.41
2023-02-16T10:57:32.840Z,11.62
2023-02-16T11:00:08.140Z,11.55
2023-02-16T11:02:42.169Z,11.27
2023-02-16T11:05:31.304Z,11.30
2023-02-16T11:08:03.234Z,11.30
2023-02-16T11:10:48.761Z,11.67
2023-02-16T11:13:32.490Z,11.66
2023-02-16T11:16:10.840Z,11.54
2023-02-16T11:18:43.408Z,11.64
2023-02-16T11:21:12.199Z,11.86
2023-02-16T11:23:44.972Z,11.93
2023-02-16T11:26:12.414Z,12.14
2023-02-16T11:28:45.872Z,11.85
2023-02-16T11:31:28.873Z,11.81
2023-02-16T11:34:06.446Z,11.82
2023-02-16T11:36:37.686Z,11.92
2023-02-16T11:39:21.656Z,11.86
2023-02-16T11:41:53.761Z,11.88
2023-02-16T11:44:27.161Z,12.06
2023-02-16T11:46:56.539Z,12.12
2023-02-16T11:49:39.798Z,12.00
2023-02-16T11:52:23.131Z,12.38
2023-02-16T11:54:55.998Z,12.31
2023-02-16T11:57:28.457Z,12.28
2023-02-16T11:59:57.638Z,12.26
2023-02-16T12:02:48.484Z,12.13
2023-02-16T12:05:29.851Z,12.18
2023-02-16T12:08:08.227Z,12.07
2023-02-16T12:10:43.349Z,12.04
2023-02-16T12:13:26.506Z,12.01
2023-02-16T12:16:03.259Z,12.02
2023-02-16T12:18:56.321Z,11.87
2023-02-16T12:21:34.745Z,11.93
2023-02-16T12:24:18.512Z,12.05
2023-02-16T12:27:00.692Z,12.25
2023-02-16T12:29:53.703Z,12.18
2023-02-16T12:32:31.138Z,12.17
2023-02-16T12:35:50.390Z,12.23
2023-02-16T12:38:24.749Z,12.16
2023-02-16T12:41:17.211Z,12.23
2023-02-16T12:43:47.797Z,12.22
2023-02-16T12:46:29.266Z,12.05
2023-02-16T12:49:21.256Z,12.18
2023-02-16T12:52:08.707Z,12.29
2023-02-16T12:54:45.525Z,12.15
2023-02-16T12:57:15.881Z,12.13
2023-02-16T12:59:59.698Z,12.12
2023-02-16T13:02:43.457Z,12.07
2023-02-16T13:05:14.908Z,12.19
2023-02-16T13:07:44.332Z,12.13
2023-02-16T13:10:26.840Z,12.20
2023-02-16T13:12:58.292Z,12.17
2023-02-16T13:15:32.035Z,12.11
2023-02-16T13:18:10.725Z,12.13
2023-02-16T13:20:41.461Z,12.09
2023-02-16T13:23:43.265Z,12.23
2023-02-16T13:26:23.035Z,12.08
2023-02-16T13:29:25.026Z,12.16
2023-02-16T13:32:09.339Z,12.17
2023-02-16T13:34:43.033Z,12.01
2023-02-16T13:37:38.352Z,12.07
2023-02-16T13:40:12.085Z,12.02
2023-02-16T13:42:52.732Z,12.00
2023-02-16T13:45:23.151Z,12.03
2023-02-16T13:47:52.267Z,11.89
2023-02-16T13:50:23.770Z,11.68
2023-02-16T13:52:53.716Z,11.58
2023-02-16T13:55:29.092Z,11.80
2023-02-16T13:58:00.196Z,12.00
2023-02-16T14:00:35.465Z,11.99
2023-02-16T14:03:16.609Z,12.10
2023-02-16T14:05:46.583Z,12.23
2023-02-16T14:08:25.632Z,12.23
2023-02-16T14:10:55.920Z,12.18
2023-02-16T14:13:29.730Z,12.18
2023-02-16T14:16:03.261Z,12.23
2023-02-16T14:18:54.138Z,12.18
2023-02-16T14:21:39.500Z,12.21
2023-02-16T14:24:12.840Z,12.22
2023-02-16T14:27:04.182Z,12.15
2023-02-16T14:29:41.826Z,12.23
2023-02-16T14:32:09.370Z,11.93
2023-02-16T14:34:41.177Z,12.01
2023-02-16T14:37:16.158Z,12.01
2023-02-16T14:40:06.570Z,12.07
2023-02-16T14:42:34.226Z,12.11
2023-02-16T14:45:20.836Z,12.15
2023-02-16T14:48:06.752Z,12.08
2023-02-16T14:50:54.190Z,12.21
2023-02-16T14:53:46.373Z,12.06
2023-02-16T14:56:45.530Z,12.21
2023-02-16T14:59:39.167Z,12.28
2023-02-16T15:02:41.790Z,12.30
2023-02-16T15:05:17.755Z,12.21
2023-02-16T15:07:52.206Z,11.92
2023-02-16T15:10:29.057Z,11.97
2023-02-16T15:12:57.323Z,12.07
2023-02-16T15:15:37.446Z,12.06
2023-02-16T15:18:08.285Z,12.06
2023-02-16T15:20:38.528Z,12.01
2023-02-16T15:23:25.093Z,12.05
2023-02-16T15:26:01.793Z,11.96
2023-02-16T15:28:33.754Z,11.92
2023-02-16T15:31:06.726Z,11.91
2023-02-16T15:33:40.947Z,11.89
2023-02-16T15:36:13.413Z,11.77
2023-02-16T15:39:00.369Z,11.83
2023-02-16T15:41:33.756Z,11.69
2023-02-16T15:44:03.522Z,11.75
2023-02-16T15:46:37.766Z,11.63
2023-02-16T15:49:14.782Z,11.64
2023-02-16T15:51:43.151Z,11.77
2023-02-16T15:54:22.563Z,11.69
2023-02-16T15:56:55.090Z,11.57
2023-02-16T15:59:33.576Z,11.42
2023-02-16T16:02:40.723Z,11.40
2023-02-16T16:05:09.975Z,11.35
2023-02-16T16:07:42.181Z,11.26
2023-02-16T16:10:15.886Z,11.31
2023-02-16T16:12:44.279Z,11.13
2023-02-16T16:15:22.898Z,11.14
2023-02-16T16:17:52.442Z,11.05
2023-02-16T16:20:26.056Z,10.92
2023-02-16T16:22:58.227Z,10.99
2023-02-16T16:25:35.262Z,11.03
2023-02-16T16:28:05.364Z,10.94
2023-02-16T16:30:37.494Z,10.78
2023-02-16T16:33:07.548Z,10.67
2023-02-16T16:35:49.747Z,10.67
2023-02-16T16:38:25.930Z,10.59
2023-02-16T16:40:58.545Z,10.54
2023-02-16T16:43:37.233Z,10.45
2023-02-16T16:46:20.279Z,10.37
2023-02-16T16:48:49.519Z,10.30
2023-02-16T16:51:31.222Z,10.20
2023-02-16T16:54:04.238Z,10.19
2023-02-16T16:56:39.401Z,10.07
2023-02-16T16:59:06.870Z,9.95
2023-02-16T17:01:37.669Z,9.89
2023-02-16T17:04:05.054Z,9.86
2023-02-16T17:06:32.468Z,9.84
2023-02-16T17:09:06.292Z,9.80
2023-02-16T17:11:37.980Z,9.74
2023-02-16T17:14:26.390Z,9.62
2023-02-16T17:16:56.294Z,9.61
2023-02-16T17:19:24.022Z,9.47
2023-02-16T17:21:51.378Z,9.40
2023-02-16T17:24:36.750Z,9.42
2023-02-16T17:27:04.577Z,9.23
2023-02-16T17:29:32.010Z,9.29
2023-02-16T17:31:59.722Z,9.19
2023-02-16T17:34:30.897Z,8.95
2023-02-16T17:37:00.179Z,8.87
2023-02-16T17:39:27.830Z,8.79
2023-02-16T17:41:55.638Z,8.70
2023-02-16T17:44:23.585Z,8.64
2023-02-16T17:46:52.066Z,8.59
2023-02-16T17:49:23.078Z,8.52
2023-02-16T17:51:51.342Z,8.46
2023-02-16T17:54:19.243Z,8.40
2023-02-16T17:56:47.461Z,8.41
2023-02-16T17:59:15.852Z,8.30
2023-02-16T18:01:44.349Z,8.20
2023-02-16T18:04:15.291Z,8.23
2023-02-16T18:06:43.235Z,8.17
2023-02-16T18:09:16.080Z,8.04
2023-02-16T18:11:44.242Z,8.00
2023-02-16T18:14:12.546Z,7.92
2023-02-16T18:16:40.372Z,7.84
2023-02-16T18:19:13.580Z,7.89
2023-02-16T18:21:41.302Z,7.82
2023-02-16T18:24:08.932Z,7.81
2023-02-16T18:26:36.398Z,7.73
2023-02-16T18:29:05.929Z,7.63
2023-02-16T18:31:33.746Z,7.58
2023-02-16T18:34:01.777Z,7.53
2023-02-16T18:36:29.793Z,7.43
2023-02-16T18:38:57.783Z,7.47
2023-02-16T18:41:25.836Z,7.53
2023-02-16T18:43:53.304Z,7.49
2023-02-16T18:46:21.778Z,7.53
2023-02-16T18:48:49.817Z,7.38
2023-02-16T18:51:17.786Z,7.54
2023-02-16T18:53:45.492Z,7.55
2023-02-16T18:56:12.941Z,7.57
2023-02-16T18:58:40.322Z,7.54
2023-02-16T19:01:30.965Z,7.62
2023-02-16T19:04:00.487Z,7.65
2023-02-16T19:06:28.663Z,7.61
2023-02-16T19:08:59.013Z,7.48
2023-02-16T19:11:28.170Z,7.45
2023-02-16T19:13:56.913Z,7.61
2023-02-16T19:16:33.796Z,7.55
2023-02-16T19:19:01.501Z,7.62
2023-02-16T19:21:29.581Z,7.63
2023-02-16T19:23:57.014Z,7.73
2023-02-16T19:26:24.722Z,7.73
2023-02-16T19:28:53.406Z,7.62
2023-02-16T19:31:26.419Z,7.54
2023-02-16T19:33:54.677Z,7.56
2023-02-16T19:36:22.658Z,7.59
2023-02-16T19:38:50.371Z,7.46
2023-02-16T19:41:21.405Z,7.47
2023-02-16T19:43:49.031Z,7.48
2023-02-16T19:46:16.448Z,7.53
2023-02-16T19:48:45.968Z,7.45
2023-02-16T19:51:14.212Z,7.42
2023-02-16T19:53:42.940Z,7.53
2023-02-16T19:56:17.024Z,7.48
2023-02-16T19:58:44.906Z,7.50
2023-02-16T20:01:18.230Z,7.53
2023-02-16T20:03:46.363Z,7.37
2023-02-16T20:06:20.527Z,7.59
2023-02-16T20:08:49.634Z,7.63
2023-02-16T20:11:19.298Z,7.57
2023-02-16T20:13:47.126Z,7.64
2023-02-16T20:16:16.754Z,7.58
2023-02-16T20:18:44.508Z,7.71
2023-02-16T20:21:17.569Z,7.64
2023-02-16T20:23:46.314Z,7.72
2023-02-16T20:26:17.742Z,7.44
2023-02-16T20:28:45.893Z,7.43
2023-02-16T20:31:26.701Z,7.39
2023-02-16T20:33:54.848Z,7.33
2023-02-16T20:36:22.928Z,7.30
2023-02-16T20:38:50.733Z,7.35
2023-02-16T20:41:19.307Z,7.27
2023-02-16T20:43:46.994Z,7.38
2023-02-16T20:46:15.586Z,7.35
2023-02-16T20:48:44.037Z,7.37
2023-02-16T20:51:12.965Z,7.35
2023-02-16T20:53:40.894Z,7.30
2023-02-16T20:56:14.655Z,7.31
2023-02-16T20:58:43.439Z,7.25
2023-02-16T21:01:17.533Z,7.09
2023-02-16T21:03:44.881Z,7.04
2023-02-16T21:06:12.565Z,6.90
2023-02-16T21:08:40.071Z,6.80
2023-02-16T21:11:07.673Z,6.78
2023-02-16T21:13:35.624Z,6.67
2023-02-16T21:16:03.689Z,6.59
2023-02-16T21:18:31.306Z,6.62
2023-02-16T21:21:00.567Z,6.60
2023-02-16T21:23:28.549Z,6.60
2023-02-16T21:26:05.134Z,6.69
2023-02-16T21:28:33.001Z,6.58
2023-02-16T21:31:05.435Z,6.54
2023-02-16T21:33:33.598Z,6.55
2023-02-16T21:36:08.953Z,6.53
2023-02-16T21:38:37.427Z,6.52
2023-02-16T21:41:24.918Z,6.45
2023-02-16T21:43:57.314Z,6.41
2023-02-16T21:46:24.833Z,6.25
2023-02-16T21:48:52.285Z,6.35
2023-02-16T21:51:24.131Z,6.30
2023-02-16T21:53:53.226Z,6.25
2023-02-16T21:56:37.475Z,6.30
2023-02-16T21:59:07.714Z,6.15
2023-02-16T22:01:38.313Z,6.12
2023-02-16T22:04:06.135Z,6.04
2023-02-16T22:06:37.552Z,6.01
2023-02-16T22:09:10.638Z,5.96
2023-02-16T22:11:38.713Z,6.06
2023-02-16T22:14:06.582Z,6.03
2023-02-16T22:16:35.550Z,6.10
2023-02-16T22:19:09.476Z,6.00
2023-02-16T22:21:38.566Z,6.07
2023-02-16T22:24:06.943Z,5.91
2023-02-16T22:26:35.361Z,5.90
2023-02-16T22:29:04.045Z,5.74
2023-02-16T22:31:32.388Z,5.82
2023-02-16T22:34:02.446Z,5.85
2023-02-16T22:36:30.597Z,5.87
2023-02-16T22:38:58.389Z,5.88
2023-02-16T22:41:26.208Z,5.91
2023-02-16T22:43:55.342Z,5.89
2023-02-16T22:46:24.070Z,5.98
2023-02-16T22:48:52.096Z,5.86
2023-02-16T22:51:20.520Z,6.00
2023-02-16T22:53:48.541Z,6.00
2023-02-16T22:56:19.461Z,6.03
2023-02-16T22:58:46.978Z,5.81
2023-02-16T23:01:20.179Z,5.75
2023-02-16T23:03:49.721Z,5.69
2023-02-16T23:06:20.344Z,5.72
2023-02-16T23:08:53.107Z,5.71
2023-02-16T23:11:20.951Z,5.76
2023-02-16T23:13:48.405Z,5.78
2023-02-16T23:16:17.906Z,5.75
2023-02-16T23:18:46.052Z,5.70
2023-02-16T23:21:17.513Z,5.69
2023-02-16T23:23:45.664Z,5.60
2023-02-16T23:26:13.846Z,5.65
2023-02-16T23:28:42.485Z,5.61
2023-02-16T23:31:10.728Z,5.56
2023-02-16T23:33:39.437Z,5.55
2023-02-16T23:36:07.472Z,5.67
2023-02-16T23:38:35.343Z,5.50
2023-02-16T23:41:08.166Z,5.42
2023-02-16T23:43:35.894Z,5.43
2023-02-16T23:46:04.998Z,5.39
2023-02-16T23:48:32.756Z,5.34
2023-02-16T23:51:00.152Z,5.25
2023-02-16T23:53:28.626Z,5.22
2023-02-16T23:56:12.985Z,5.18
2023-02-16T23:58:42.197Z,5.04
